Time;durP1;ratioP1;P1;durP2;ratioP2;P2;SDS_P1;SDS_P2;PMS_P1;PMS_P2;Temp;Humidity;BMP_temperature;BMP_pressure;BME280_temperature;BME280_humidity;BME280_pressure;Samples;Min_cycle;Max_cycle;Signal;HPM_P1;HPM_P2
2022/08/17 00:02:24;;;;;;;14.90;12.55;;;;;;;28.13;45.21;100405.50;2229821;78;51329;-74
2022/08/17 00:05:28;;;;;;;15.53;12.80;;;;;;;28.14;45.21;100399.51;2284827;76;51386;-73
2022/08/17 00:08:38;;;;;;;16.27;13.03;;;;;;;28.14;45.19;100403.59;2284337;76;51476;-72
2022/08/17 00:11:41;;;;;;;14.90;12.90;;;;;;;28.14;45.19;100411.20;2253319;78;50335;-71
2022/08/17 00:14:43;;;;;;;16.90;12.53;;;;;;;28.14;45.29;100407.13;2253557;77;52853;-72
2022/08/17 00:17:47;;;;;;;16.00;12.23;;;;;;;28.15;45.26;100401.14;2253552;78;51452;-74
2022/08/17 00:20:50;;;;;;;13.58;12.15;;;;;;;28.14;45.40;100402.23;2284297;77;51426;-74
2022/08/17 00:23:52;;;;;;;17.07;12.75;;;;;;;28.15;45.33;100405.22;2229484;78;52497;-73
2022/08/17 00:26:55;;;;;;;13.95;12.47;;;;;;;28.15;45.30;100399.78;2303046;77;51465;-73
2022/08/17 00:29:57;;;;;;;13.53;11.88;;;;;;;28.14;45.21;100407.67;2277158;77;51397;-73
2022/08/17 00:32:59;;;;;;;14.50;12.18;;;;;;;28.14;45.23;100409.84;2281293;76;52286;-74
2022/08/17 00:36:01;;;;;;;13.22;11.28;;;;;;;28.14;45.23;100408.48;2255982;77;51999;-74
2022/08/17 00:39:04;;;;;;;13.32;11.30;;;;;;;28.13;45.22;100412.30;2255806;77;52656;-74
2022/08/17 00:42:14;;;;;;;12.50;11.20;;;;;;;28.13;45.17;100414.17;2281471;77;50244;-72
2022/08/17 00:45:17;;;;;;;13.08;11.63;;;;;;;28.14;45.16;100416.65;2281274;77;50612;-72
2022/08/17 00:48:19;;;;;;;14.20;11.73;;;;;;;28.13;45.16;100412.81;2278454;76;50028;-73
2022/08/17 00:51:41;;;;;;;13.88;11.30;;;;;;;28.13;45.09;100414.17;2341673;76;51444;-72
2022/08/17 00:54:44;;;;;;;12.00;10.70;;;;;;;28.13;45.04;100416.37;2341724;76;51567;-72
2022/08/17 00:57:48;;;;;;;11.93;10.60;;;;;;;28.13;45.01;100418.25;2328317;76;50406;-73
2022/08/17 01:00:51;;;;;;;13.37;11.37;;;;;;;28.13;44.98;100412.81;2342075;75;50348;-73
2022/08/17 01:03:53;;;;;;;11.95;10.63;;;;;;;28.12;44.97;100413.89;2321554;76;49503;-72
2022/08/17 01:06:55;;;;;;;12.35;10.68;;;;;;;28.11;44.97;100409.55;2341362;75;51474;-73
2022/08/17 01:09:57;;;;;;;13.22;10.98;;;;;;;28.11;44.93;100416.34;2341466;76;51420;-73
2022/08/17 01:13:05;;;;;;;13.40;11.08;;;;;;;28.11;44.94;100420.42;2321653;76;52481;-73
2022/08/17 01:16:07;;;;;;;13.98;10.23;;;;;;;28.12;44.93;100420.70;2340790;75;28624;-73
2022/08/17 01:19:11;;;;;;;;;;;;;;;28.10;44.89;100420.94;2341960;75;50747;-73
2022/08/17 01:22:16;;;;;;;11.55;10.13;;;;;;;28.11;44.88;100429.95;2332703;75;50788;-72
2022/08/17 01:25:18;;;;;;;13.20;10.68;;;;;;;28.10;44.87;100424.20;2341672;76;51389;-73
2022/08/17 01:28:21;;;;;;;12.10;10.03;;;;;;;28.10;44.85;100426.92;2328288;76;50261;-73
2022/08/17 01:31:25;;;;;;;13.95;9.93;;;;;;;28.09;44.84;100430.73;2304183;77;50238;-72
2022/08/17 01:34:27;;;;;;;13.30;10.38;;;;;;;28.09;44.84;100431.55;2297636;77;50620;-73
2022/08/17 01:37:33;;;;;;;13.08;10.28;;;;;;;28.09;44.83;100434.81;2313422;74;50593;-73
2022/08/17 01:40:37;;;;;;;13.45;10.28;;;;;;;28.08;44.82;100431.27;2301856;76;50364;-73
2022/08/17 01:43:43;;;;;;;13.93;10.18;;;;;;;28.08;44.80;100431.78;2291990;76;51449;-73
2022/08/17 01:46:45;;;;;;;13.25;11.28;;;;;;;28.08;44.79;100432.63;2289748;76;50851;-73
2022/08/17 01:49:47;;;;;;;12.93;10.00;;;;;;;28.08;44.80;100428.55;2305596;76;50277;-73
2022/08/17 01:52:51;;;;;;;12.07;10.30;;;;;;;28.08;44.78;100427.70;2305252;76;50244;-73
2022/08/17 01:55:56;;;;;;;16.17;9.93;;;;;;;28.08;44.79;100434.50;2281009;76;51503;-69
2022/08/17 01:58:58;;;;;;;12.13;10.03;;;;;;;28.07;44.76;100430.97;2315267;76;51199;-73
2022/08/17 02:02:01;;;;;;;11.10;10.00;;;;;;;28.07;44.76;100435.05;2292383;76;50938;-72
2022/08/17 02:05:04;;;;;;;14.10;10.10;;;;;;;28.07;44.74;100436.41;2297212;76;51471;-74
2022/08/17 02:08:09;;;;;;;13.03;11.53;;;;;;;28.06;44.76;100426.61;2318030;76;50238;-72
2022/08/17 02:11:14;;;;;;;11.03;9.93;;;;;;;28.06;44.76;100424.44;2263681;76;50919;-73
2022/08/17 02:14:16;;;;;;;11.15;10.00;;;;;;;28.07;44.74;100426.07;2318469;75;50222;-73
2022/08/17 02:17:19;;;;;;;12.82;10.50;;;;;;;28.05;44.74;100432.30;2305947;76;51400;-72
2022/08/17 02:20:21;;;;;;;12.90;10.93;;;;;;;28.05;44.74;100436.38;2306335;76;51462;-73
2022/08/17 02:23:24;;;;;;;15.63;10.63;;;;;;;28.04;44.71;100426.58;2306475;76;51488;-73
2022/08/17 02:26:26;;;;;;;13.98;10.53;;;;;;;28.05;44.72;100430.94;2318350;76;50339;-74
2022/08/17 02:29:28;;;;;;;12.78;10.70;;;;;;;28.04;44.75;100431.48;2279606;76;51371;-74
2022/08/17 02:32:31;;;;;;;11.78;10.55;;;;;;;28.04;44.75;100434.74;2314362;76;50390;-74
2022/08/17 02:35:33;;;;;;;12.40;10.25;;;;;;;28.04;44.72;100436.09;2261706;76;51747;-73
2022/08/17 02:38:36;;;;;;;11.22;10.03;;;;;;;28.04;44.72;100434.20;2314546;76;51492;-74
2022/08/17 02:41:39;;;;;;;12.82;10.15;;;;;;;28.04;44.71;100429.30;2245272;78;51419;-73
2022/08/17 02:44:42;;;;;;;12.95;10.28;;;;;;;28.04;44.74;100427.39;2245641;78;50702;-74
2022/08/17 02:47:44;;;;;;;11.45;10.23;;;;;;;28.04;44.75;100422.50;2271058;77;51443;-74
2022/08/17 02:50:46;;;;;;;11.45;10.25;;;;;;;28.04;44.76;100424.68;2271432;77;53580;-73
2022/08/17 02:53:49;;;;;;;13.50;10.25;;;;;;;28.04;44.73;100427.94;2271364;77;51506;-73
2022/08/17 02:56:51;;;;;;;12.25;10.18;;;;;;;28.02;44.74;100429.54;2302492;76;51455;-73
2022/08/17 02:59:53;;;;;;;11.97;10.23;;;;;;;28.03;44.74;100429.00;2271571;77;48969;-72
2022/08/17 03:02:56;;;;;;;14.90;10.82;;;;;;;28.03;44.73;100427.64;2247088;76;51443;-72
2022/08/17 03:05:58;;;;;;;14.38;10.40;;;;;;;28.03;44.80;100423.05;2302375;76;50204;-73
2022/08/17 03:09:01;;;;;;;13.78;10.85;;;;;;;28.03;44.80;100418.11;2312579;76;50367;-73
2022/08/17 03:12:07;;;;;;;12.35;10.35;;;;;;;28.01;44.81;100423.83;2325271;76;50652;-73
2022/08/17 03:15:15;;;;;;;12.82;10.90;;;;;;;28.03;44.82;100419.48;2293381;76;52601;-74
2022/08/17 03:18:19;;;;;;;12.00;10.05;;;;;;;28.01;44.82;100421.92;2325040;76;50596;-73
2022/08/17 03:21:21;;;;;;;12.80;10.75;;;;;;;28.03;44.80;100420.84;2325135;76;52049;-74
2022/08/17 03:24:23;;;;;;;11.95;10.50;;;;;;;28.03;44.80;100424.92;2293384;76;50958;-74
2022/08/17 03:27:25;;;;;;;12.95;10.18;;;;;;;28.01;44.81;100418.39;2293548;76;50256;-74
2022/08/17 03:30:28;;;;;;;13.00;10.23;;;;;;;28.01;44.82;100417.84;2269363;76;52302;-74
2022/08/17 03:33:30;;;;;;;11.25;10.03;;;;;;;28.01;44.80;100426.00;2293272;76;52290;-74
2022/08/17 03:36:32;;;;;;;13.08;10.55;;;;;;;28.01;44.82;100421.11;2328541;75;50635;-72
2022/08/17 03:39:34;;;;;;;13.10;10.35;;;;;;;28.01;44.83;100416.48;2276525;76;51305;-73
2022/08/17 03:42:40;;;;;;;11.73;10.35;;;;;;;28.00;45.00;100414.00;2302658;76;49996;-72
2022/08/17 03:59:05;;;;;;;12.78;10.13;;;;;;;28.00;44.91;100420.80;2346829;75;22451;-72
2022/08/17 04:02:09;;;;;;;14.90;10.68;;;;;;;27.98;44.88;100421.08;2290879;75;51534;-72
2022/08/17 04:05:13;;;;;;;16.87;10.00;;;;;;;27.99;44.99;100417.27;2332078;75;50221;-72
2022/08/17 04:08:16;;;;;;;13.25;10.30;;;;;;;27.99;45.00;100416.45;2339149;76;51474;-71
2022/08/17 04:11:18;;;;;;;15.72;10.32;;;;;;;27.99;44.99;100414.55;2322119;76;51481;-72
2022/08/17 04:14:20;;;;;;;13.32;9.98;;;;;;;27.98;44.98;100415.63;2294749;76;51277;-73
2022/08/17 04:17:24;;;;;;;14.73;10.25;;;;;;;27.97;44.98;100418.05;2341660;76;51438;-73
2022/08/17 04:20:27;;;;;;;13.87;10.70;;;;;;;27.98;44.99;100429.23;2342382;76;50358;-72
2022/08/17 04:23:32;;;;;;;12.78;10.32;;;;;;;27.99;45.01;100424.61;2341906;76;50430;-73
2022/08/17 04:26:33;;;;;;;13.43;10.68;;;;;;;27.99;44.96;100428.14;2296748;76;22695;-73
2022/08/17 04:29:35;;;;;;;13.38;10.80;;;;;;;27.99;44.96;100429.50;2284159;76;49565;-73
2022/08/17 04:32:51;;;;;;;15.23;9.93;;;;;;;27.99;45.01;100425.42;2252092;77;50202;-72
2022/08/17 04:35:58;;;;;;;15.90;11.18;;;;;;;27.99;45.04;100425.42;2321279;76;51439;-73
2022/08/17 04:39:01;;;;;;;15.78;11.95;;;;;;;27.99;44.82;100434.13;2253383;76;52329;-75
2022/08/17 04:42:15;;;;;;;19.62;11.90;;;;;;;27.97;44.66;100438.45;2283576;77;50630;-74
2022/08/17 04:45:11;;;;;;;13.85;11.93;;;;;;;27.97;44.53;100441.70;2283753;77;22389;-75
2022/08/17 04:48:14;;;;;;;17.87;12.30;;;;;;;27.95;44.44;100443.34;2283090;77;50650;-75
2022/08/17 04:51:19;;;;;;;16.02;10.40;;;;;;;27.94;44.43;100447.11;2273506;77;50073;-75
2022/08/17 04:54:21;;;;;;;20.12;11.93;;;;;;;27.92;44.42;100455.23;2272452;77;52436;-75
2022/08/17 04:57:23;;;;;;;18.23;12.20;;;;;;;27.93;44.43;100446.02;2293604;76;51546;-75
2022/08/17 05:00:26;;;;;;;20.92;12.68;;;;;;;27.91;44.43;100448.98;2293888;77;51586;-75
2022/08/17 05:03:28;;;;;;;16.12;13.05;;;;;;;27.91;44.47;100448.16;2279159;76;52372;-75
2022/08/17 05:06:30;;;;;;;18.35;12.65;;;;;;;27.90;44.49;100444.63;2333011;76;50633;-75
2022/08/17 05:09:32;;;;;;;15.95;12.30;;;;;;;27.91;44.55;100448.98;2333278;76;50772;-75
2022/08/17 05:12:35;;;;;;;17.48;11.85;;;;;;;27.91;44.57;100453.60;2333341;76;52391;-75
2022/08/17 05:15:39;;;;;;;17.67;12.05;;;;;;;27.91;44.61;100450.34;2285630;76;51864;-76
2022/08/17 05:18:42;;;;;;;18.87;13.13;;;;;;;27.92;44.68;100457.95;2260957;76;50911;-76
2022/08/17 05:21:45;;;;;;;15.75;12.23;;;;;;;27.95;44.73;100458.30;2311485;75;50721;-75
2022/08/17 05:24:48;;;;;;;19.75;12.07;;;;;;;27.97;44.73;100458.84;2311187;76;51468;-75
2022/08/17 05:27:50;;;;;;;25.08;13.20;;;;;;;28.00;44.82;100458.37;2268409;76;52524;-75
2022/08/17 05:30:53;;;;;;;18.70;13.15;;;;;;;28.01;44.91;100464.08;2301589;76;49914;-76
2022/08/17 05:33:55;;;;;;;19.17;13.25;;;;;;;28.00;44.94;100461.09;2327685;76;50603;-75
2022/08/17 05:36:57;;;;;;;17.57;13.30;;;;;;;28.04;44.75;100466.02;2297461;75;50978;-74
2022/08/17 05:39:59;;;;;;;20.80;13.28;;;;;;;28.08;44.64;100470.72;2332897;75;51409;-75
2022/08/17 05:43:10;;;;;;;21.85;13.30;;;;;;;28.07;44.81;100466.33;2311429;75;50153;-76
2022/08/17 05:46:22;;;;;;;24.00;13.32;;;;;;;28.20;44.73;100474.66;2310534;76;52495;-78
2022/08/17 05:49:26;;;;;;;19.77;12.23;;;;;;;28.23;44.49;100469.56;2334237;75;51598;-75
2022/08/17 05:52:51;;;;;;;20.95;11.65;;;;;;;28.19;44.15;100471.13;2342146;76;51562;-76
2022/08/17 05:55:57;;;;;;;18.30;11.10;;;;;;;28.23;44.10;100475.00;2334852;76;50679;-75
2022/08/17 05:59:23;;;;;;;21.57;14.15;;;;;;;28.26;43.99;100483.20;2341823;75;50718;-76
2022/08/17 06:02:47;;;;;;;16.65;11.30;;;;;;;28.17;44.59;100490.13;2348864;75;52300;-76
2022/08/17 06:05:56;;;;;;;18.40;13.05;;;;;;;28.19;44.43;100492.08;2298537;77;51535;-75
2022/08/17 06:09:28;;;;;;;29.77;12.98;;;;;;;28.10;44.36;100490.30;2308429;76;51542;-75
2022/08/17 06:12:55;;;;;;;22.67;12.43;;;;;;;28.17;44.28;100492.86;2285537;77;49520;-76
2022/08/17 06:16:03;;;;;;;22.22;12.50;;;;;;;28.23;44.22;100494.56;2311177;77;50305;-75
2022/08/17 06:19:20;;;;;;;22.55;11.60;;;;;;;28.22;44.20;100497.83;2302734;77;51496;-74
2022/08/17 06:22:25;;;;;;;16.50;11.88;;;;;;;28.24;44.20;100498.94;2311642;77;51925;-75
2022/08/17 06:25:36;;;;;;;20.33;11.93;;;;;;;28.25;44.13;100500.58;2311694;77;51649;-74
2022/08/17 06:28:50;;;;;;;19.52;12.63;;;;;;;28.23;44.00;100496.77;2285385;77;51096;-74
2022/08/17 06:31:52;;;;;;;18.82;13.32;;;;;;;28.25;43.98;100492.42;2289653;77;51456;-75
2022/08/17 06:34:56;;;;;;;20.32;14.05;;;;;;;28.26;44.06;100495.95;2273077;78;50253;-76
2022/08/17 06:38:33;;;;;;;19.62;13.35;;;;;;;28.30;43.93;100500.65;2277459;77;50968;-75
2022/08/17 06:41:54;;;;;;;23.83;14.65;;;;;;;28.31;43.77;100496.02;2285531;77;49584;-77
2022/08/17 06:45:08;;;;;;;16.48;12.75;;;;;;;28.33;43.76;100495.23;2341642;76;51474;-75
2022/08/17 06:48:14;;;;;;;17.55;11.78;;;;;;;28.37;43.68;100505.37;2319586;76;51438;-75
2022/08/17 06:51:21;;;;;;;19.77;12.75;;;;;;;28.31;43.58;100503.67;2327444;75;50210;-75
2022/08/17 06:54:27;;;;;;;21.75;11.63;;;;;;;28.38;43.57;100500.20;2284889;76;51838;-75
2022/08/17 06:57:35;;;;;;;19.07;11.85;;;;;;;28.40;43.60;100508.95;2276287;76;50835;-75
2022/08/17 07:00:40;;;;;;;18.70;11.38;;;;;;;28.45;43.35;100502.78;2279925;77;50409;-77
2022/08/17 07:03:54;;;;;;;17.00;12.00;;;;;;;28.51;43.04;100505.02;2255512;78;49789;-76
2022/08/17 07:10:38;;;;;;;18.42;10.38;;;;;;;28.61;42.41;100503.79;2281931;76;22295;-75
2022/08/17 07:13:43;;;;;;;13.95;8.75;;;;;;;28.64;42.23;100508.72;2278320;76;51420;-75
2022/08/17 07:16:53;;;;;;;14.18;9.23;;;;;;;28.74;41.23;100510.20;2268366;78;51798;-75
2022/08/17 07:20:00;;;;;;;12.25;8.33;;;;;;;28.65;41.42;100506.30;2247407;78;50060;-75
2022/08/17 07:23:05;;;;;;;15.68;8.80;;;;;;;28.64;41.30;100513.66;2297269;76;50163;-75
2022/08/17 07:26:08;;;;;;;13.72;8.30;;;;;;;28.68;40.45;100510.42;2315727;76;50281;-75
2022/08/17 07:29:10;;;;;;;14.00;8.43;;;;;;;28.57;40.74;100504.03;2291233;76;52450;-75
2022/08/17 07:32:17;;;;;;;13.68;7.78;;;;;;;28.56;40.95;100508.63;2317868;75;51474;-75
2022/08/17 07:35:23;;;;;;;12.18;8.20;;;;;;;28.59;40.93;100510.02;2290453;76;23038;-74
2022/08/17 07:38:31;;;;;;;14.53;7.97;;;;;;;28.70;40.61;100511.81;2291786;76;51458;-73
2022/08/17 07:41:38;;;;;;;12.68;8.50;;;;;;;28.78;40.44;100516.80;2314652;76;50405;-77
2022/08/17 07:44:54;;;;;;;15.72;8.73;;;;;;;28.76;40.10;100517.59;2304435;76;49540;-76
2022/08/17 07:51:25;;;;;;;14.70;8.55;;;;;;;28.77;40.50;100515.16;2319013;75;22446;-76
2022/08/17 07:54:39;;;;;;;16.95;8.45;;;;;;;28.95;40.07;100519.97;2306171;76;49579;-77
2022/08/17 07:57:41;;;;;;;15.03;8.00;;;;;;;28.97;39.67;100521.91;2318452;75;50708;-76
2022/08/17 08:00:44;;;;;;;21.97;8.08;;;;;;;28.91;39.44;100518.85;2306341;75;50674;-77
2022/08/17 08:03:46;;;;;;;12.13;6.72;;;;;;;28.90;39.74;100521.27;2275435;76;50702;-76
2022/08/17 08:06:54;;;;;;;8.60;6.67;;;;;;;28.92;38.93;100519.94;2280394;76;51596;-76
2022/08/17 08:10:09;;;;;;;12.15;5.67;;;;;;;29.08;37.41;100514.14;2318003;76;22420;-77
2022/08/17 08:13:23;;;;;;;9.03;4.97;;;;;;;28.96;36.96;100520.27;2318483;76;50287;-76
2022/08/17 08:16:28;;;;;;;8.10;5.22;;;;;;;28.84;37.49;100522.58;2318056;76;50609;-77
2022/08/17 08:19:30;;;;;;;10.55;6.30;;;;;;;28.85;37.43;100525.60;2275489;76;49610;-77
2022/08/17 08:22:41;;;;;;;8.15;5.65;;;;;;;28.94;37.79;100526.50;2316775;76;51531;-77
2022/08/17 08:25:55;;;;;;;11.63;7.42;;;;;;;29.00;37.79;100524.11;2316601;76;50338;-77
2022/08/17 08:29:07;;;;;;;11.35;5.97;;;;;;;29.03;38.17;100531.77;2316699;76;22354;-77
2022/08/17 08:32:46;;;;;;;9.75;4.87;;;;;;;28.99;37.41;100527.38;2295827;76;52487;-78
2022/08/17 08:36:09;;;;;;;6.30;4.33;;;;;;;29.12;36.80;100534.36;2294040;77;50098;-77
2022/08/17 08:39:26;;;;;;;10.28;4.53;;;;;;;28.98;36.93;100533.06;2302534;75;50363;-77
2022/08/17 08:42:46;;;;;;;8.30;4.85;;;;;;;29.15;36.53;100524.30;2247211;77;50769;-78
2022/08/17 08:46:19;;;;;;;6.33;4.33;;;;;;;29.26;36.11;100515.16;2245432;77;51062;-74
2022/08/17 08:49:49;;;;;;;6.58;4.97;;;;;;;28.90;35.72;100521.27;2268054;77;51542;-77
2022/08/17 08:53:03;;;;;;;6.83;4.28;;;;;;;28.85;36.32;100517.44;2305037;76;51603;-77
2022/08/17 08:56:11;;;;;;;9.40;4.17;;;;;;;28.95;35.01;100519.97;2312939;75;50702;-76
2022/08/17 08:59:23;;;;;;;7.42;4.78;;;;;;;28.90;35.23;100522.63;2313246;75;50697;-76
2022/08/17 09:02:54;;;;;;;7.03;5.10;;;;;;;28.94;35.72;100525.14;2281847;75;51009;-76
2022/08/17 09:06:15;;;;;;;5.08;4.58;;;;;;;29.13;35.80;100517.46;2312903;75;50322;-76
2022/08/17 09:09:49;;;;;;;7.45;4.70;;;;;;;29.23;35.35;100518.37;2336390;75;50767;-79
2022/08/17 09:13:03;;;;;;;9.68;5.05;;;;;;;29.07;35.78;100516.59;2318875;75;51353;-76
2022/08/17 09:16:21;;;;;;;11.30;4.92;;;;;;;29.13;35.34;100521.00;2350299;75;50778;-76
2022/08/17 09:19:56;;;;;;;8.55;4.87;;;;;;;29.14;35.10;100522.66;2350709;74;51610;-76
2022/08/17 09:23:06;;;;;;;4.58;3.98;;;;;;;29.22;34.55;100512.66;2351096;75;51549;-77
2022/08/17 09:26:26;;;;;;;5.78;4.00;;;;;;;29.07;34.70;100514.69;2350410;75;22466;-77
2022/08/17 09:29:33;;;;;;;6.05;3.70;;;;;;;29.11;34.25;100518.25;2317463;75;49582;-77
2022/08/17 09:32:37;;;;;;;6.80;4.33;;;;;;;28.95;34.56;100513.16;2351014;75;22294;-77
2022/08/17 09:35:43;;;;;;;12.82;4.92;;;;;;;28.80;35.66;100514.65;2350808;75;51592;-77
2022/08/17 09:38:58;;;;;;;;;;;;;;;29.06;35.32;100508.97;2306762;75;52523;-77
2022/08/17 09:42:06;;;;;;;7.03;4.00;;;;;;;29.10;34.83;100513.34;2353427;75;55625;-76
2022/08/17 09:45:17;;;;;;;4.08;3.75;;;;;;;29.04;34.65;100504.28;2353205;75;51548;-77
2022/08/17 09:48:23;;;;;;;5.70;3.52;;;;;;;29.19;33.46;100511.81;2324459;75;51168;-77
2022/08/17 09:51:38;;;;;;;7.37;3.83;;;;;;;29.01;34.29;100519.78;2346927;75;50291;-76
2022/08/17 09:54:41;;;;;;;7.85;4.22;;;;;;;28.90;35.10;100517.19;2318992;75;23612;-78
2022/08/17 09:57:55;;;;;;;4.55;3.98;;;;;;;29.19;34.33;100521.36;2318349;76;50330;-77
2022/08/17 10:01:01;;;;;;;7.00;4.03;;;;;;;29.17;34.25;100509.88;2318577;75;50312;-75
2022/08/17 10:04:12;;;;;;;6.33;4.00;;;;;;;29.20;34.24;100512.63;2316336;76;50245;-78
2022/08/17 10:07:24;;;;;;;5.95;3.83;;;;;;;29.35;33.81;100505.15;2312422;76;51491;-77
2022/08/17 10:10:29;;;;;;;6.65;4.37;;;;;;;29.07;33.94;100504.33;2313601;75;50096;-77
2022/08/17 10:13:37;;;;;;;7.60;3.83;;;;;;;29.19;33.87;100499.55;2306407;76;52631;-77
2022/08/17 10:16:46;;;;;;;6.83;3.92;;;;;;;29.13;33.92;100495.12;2318137;76;53202;-76
2022/08/17 10:20:08;;;;;;;5.30;4.22;;;;;;;29.25;33.99;100492.25;2318417;75;51595;-76
2022/08/17 10:26:36;;;;;;;7.42;4.45;;;;;;;29.33;33.83;100495.04;2318622;76;22567;-76
2022/08/17 10:29:50;;;;;;;6.42;4.40;;;;;;;29.16;34.17;100495.99;2306393;76;51037;-76
2022/08/17 10:33:00;;;;;;;9.83;5.20;;;;;;;29.10;34.54;100501.09;2318849;76;50606;-76
2022/08/17 10:36:17;;;;;;;12.58;6.65;;;;;;;29.22;33.97;100502.30;2318596;76;51558;-77
2022/08/17 10:39:31;;;;;;;17.90;6.30;;;;;;;29.22;34.16;100500.39;2277389;76;52554;-77
2022/08/17 10:42:45;;;;;;;10.82;4.65;;;;;;;29.15;34.50;100494.87;2307288;76;50682;-77
2022/08/17 10:46:10;;;;;;;12.40;4.85;;;;;;;29.08;34.49;100490.47;2318737;76;51504;-76
2022/08/17 10:49:19;;;;;;;11.15;4.60;;;;;;;29.24;33.81;100487.34;2319061;76;50236;-76
2022/08/17 10:52:31;;;;;;;9.60;4.55;;;;;;;29.14;34.10;100504.14;2320448;76;51448;-76
2022/08/17 10:55:33;;;;;;;4.50;4.10;;;;;;;29.18;33.86;100492.98;2311982;76;50672;-76
2022/08/17 10:58:52;;;;;;;8.98;4.35;;;;;;;29.23;33.68;100497.13;2301008;76;51739;-76
2022/08/17 11:01:57;;;;;;;9.10;4.42;;;;;;;29.33;33.54;100497.77;2294084;75;21776;-76
2022/08/17 11:05:17;;;;;;;5.35;4.33;;;;;;;29.26;33.70;100497.45;2291110;77;51208;-77
2022/08/17 11:08:29;;;;;;;10.08;4.90;;;;;;;29.30;33.56;100490.93;2279574;76;50733;-76
2022/08/17 11:11:48;;;;;;;9.08;4.62;;;;;;;29.19;33.98;100487.30;2279704;77;50732;-76
2022/08/17 11:15:02;;;;;;;6.72;4.40;;;;;;;29.14;34.36;100480.44;2299194;76;50199;-75
2022/08/17 11:18:23;;;;;;;7.85;4.00;;;;;;;29.13;34.14;100470.59;2300564;75;50262;-73
2022/08/17 11:21:55;;;;;;;7.58;4.05;;;;;;;29.11;34.14;100478.23;2299127;75;51870;-73
2022/08/17 11:24:57;;;;;;;5.90;4.72;;;;;;;29.35;32.82;100476.53;2324162;76;50823;-76
2022/08/17 11:28:18;;;;;;;6.78;4.83;;;;;;;29.21;33.15;100475.60;2273781;77;51625;-76
2022/08/17 11:31:39;;;;;;;5.05;4.22;;;;;;;29.15;33.63;100468.44;2283238;77;51529;-76
2022/08/17 11:34:43;;;;;;;6.45;4.08;;;;;;;29.18;33.20;100463.83;2315680;75;51558;-75
2022/08/17 11:38:05;;;;;;;6.78;4.22;;;;;;;29.26;32.22;100466.63;2318592;75;50730;-75
2022/08/17 11:41:26;;;;;;;6.90;4.42;;;;;;;29.13;32.97;100471.96;2309464;76;50758;-76
2022/08/17 11:44:37;;;;;;;5.85;4.15;;;;;;;29.07;33.39;100467.55;2317271;76;50049;-76
2022/08/17 11:54:39;;;;;;;4.42;4.03;;;;;;;29.39;32.19;100458.55;2322053;76;22210;-77
2022/08/17 11:57:44;;;;;;;7.35;4.00;;;;;;;29.28;33.34;100449.48;2280893;75;50958;-76
2022/08/17 12:00:50;;;;;;;7.05;4.15;;;;;;;29.24;33.17;100459.27;2318621;76;50780;-76
2022/08/17 12:03:56;;;;;;;;;;;;;;;29.25;33.68;100458.18;2314079;75;50167;-77
2022/08/17 12:07:08;;;;;;;7.15;5.62;;;;;;;29.28;32.81;100453.02;2308273;75;22346;-77
2022/08/17 12:10:11;;;;;;;7.67;5.20;;;;;;;29.46;32.39;100455.08;2315557;76;50147;-77
2022/08/17 12:13:15;;;;;;;7.47;4.62;;;;;;;29.27;33.67;100454.66;2292280;76;51464;-76
2022/08/17 12:16:18;;;;;;;5.78;4.10;;;;;;;29.24;33.41;100449.73;2316225;76;50326;-77
2022/08/17 12:19:22;;;;;;;4.72;4.25;;;;;;;29.12;33.17;100452.62;2316500;75;50408;-76
2022/08/17 12:22:45;;;;;;;6.33;4.25;;;;;;;29.18;32.14;100454.30;2294239;76;26008;-76
2022/08/17 12:26:06;;;;;;;11.85;4.28;;;;;;;29.43;31.71;100453.69;2330101;76;50338;-76
2022/08/17 12:29:15;;;;;;;7.42;3.58;;;;;;;29.43;31.77;100451.52;2330096;75;51534;-75
2022/08/17 12:32:18;;;;;;;6.62;3.85;;;;;;;29.44;31.48;100451.78;2270545;76;50067;-76
2022/08/17 12:35:24;;;;;;;8.05;4.08;;;;;;;29.69;31.37;100457.45;2318499;75;50412;-75
2022/08/17 12:38:27;;;;;;;5.83;3.70;;;;;;;29.46;32.29;100451.80;2318304;76;50463;-75
2022/08/17 12:41:41;;;;;;;6.22;3.65;;;;;;;29.49;31.86;100451.30;2318447;76;50579;-76
2022/08/17 12:44:43;;;;;;;6.78;3.80;;;;;;;29.42;32.35;100453.97;2305853;76;50331;-77
2022/08/17 12:47:45;;;;;;;5.50;3.85;;;;;;;29.59;31.44;100450.53;2292578;76;52617;-76
2022/08/17 12:50:48;;;;;;;7.67;4.30;;;;;;;29.41;32.66;100439.50;2267306;76;50488;-78
2022/08/17 12:53:53;;;;;;;3.98;3.67;;;;;;;29.50;32.28;100442.58;2318826;75;50710;-77
2022/08/17 12:56:55;;;;;;;5.87;4.20;;;;;;;29.51;31.95;100440.13;2297056;76;50948;-76
2022/08/17 13:00:10;;;;;;;6.80;4.20;;;;;;;29.64;31.57;100441.03;2319122;76;50351;-76
2022/08/17 13:03:15;;;;;;;5.03;4.03;;;;;;;29.59;31.85;100430.63;2319458;75;50238;-78
2022/08/17 13:06:32;;;;;;;6.55;4.17;;;;;;;29.57;31.77;100418.64;2318972;75;50337;-76
2022/08/17 13:09:34;;;;;;;7.55;4.45;;;;;;;29.62;31.29;100422.77;2319173;76;51561;-77
2022/08/17 13:12:36;;;;;;;11.90;5.25;;;;;;;29.56;31.66;100415.63;2297371;76;49572;-77
2022/08/17 13:15:41;;;;;;;10.98;5.40;;;;;;;29.41;33.23;100416.87;2297194;76;50300;-77
2022/08/17 13:18:46;;;;;;;5.30;4.50;;;;;;;29.29;33.50;100419.25;2294899;76;51491;-76
2022/08/17 13:21:52;;;;;;;6.22;3.75;;;;;;;29.38;32.24;100418.77;2245228;78;50055;-80
2022/08/17 13:25:07;;;;;;;5.17;4.08;;;;;;;29.64;31.07;100413.76;2268627;78;50526;-77
2022/08/17 13:28:12;;;;;;;7.78;3.70;;;;;;;29.65;31.06;100418.18;2268698;77;22310;-76
2022/08/17 13:31:31;;;;;;;3.92;3.52;;;;;;;29.70;30.30;100414.13;2267595;77;50659;-77
2022/08/17 13:34:35;;;;;;;4.33;3.80;;;;;;;29.54;30.83;100412.33;2268242;78;22337;-77
2022/08/17 13:37:37;;;;;;;6.75;4.45;;;;;;;29.46;31.45;100410.91;2221824;77;51068;-77
2022/08/17 13:40:42;;;;;;;5.60;4.28;;;;;;;29.46;31.59;100417.73;2242018;76;50681;-77
2022/08/17 13:43:47;;;;;;;7.10;4.55;;;;;;;29.53;31.18;100406.61;2318793;76;50386;-77
2022/08/17 13:46:52;;;;;;;16.57;11.03;;;;;;;29.53;31.30;100412.06;2280927;76;51028;-76
2022/08/17 13:49:54;;;;;;;14.47;7.05;;;;;;;29.64;30.31;100412.39;2318772;76;50377;-76
2022/08/17 13:52:57;;;;;;;7.78;5.35;;;;;;;29.51;31.59;100412.86;2318500;75;51342;-76
2022/08/17 13:56:13;;;;;;;10.23;4.45;;;;;;;29.47;31.25;100409.03;2318480;76;51533;-76
2022/08/17 13:59:18;;;;;;;7.83;5.30;;;;;;;29.60;30.70;100411.30;2318598;76;51580;-76
2022/08/17 14:02:20;;;;;;;7.95;5.50;;;;;;;29.59;31.25;100412.91;2305365;76;49566;-76
2022/08/17 14:05:23;;;;;;;8.48;5.53;;;;;;;29.58;31.13;100412.09;2306434;76;50319;-76
2022/08/17 14:08:29;;;;;;;6.00;5.25;;;;;;;29.61;31.14;100412.92;2306153;76;50328;-76
2022/08/17 14:11:29;;;;;;;5.90;5.10;;;;;;;29.63;31.13;100407.22;2305470;76;22307;-77
2022/08/17 14:14:31;;;;;;;7.47;5.78;;;;;;;29.67;31.12;100406.98;2316756;76;51389;-77
2022/08/17 14:17:33;;;;;;;9.48;6.55;;;;;;;29.50;31.94;100401.14;2292144;76;51465;-77
2022/08/17 14:20:35;;;;;;;6.85;5.10;;;;;;;29.65;30.88;100397.73;2266770;76;52391;-76
2022/08/17 14:23:38;;;;;;;11.10;5.30;;;;;;;29.53;30.81;100402.52;2316655;76;50179;-77
2022/08/17 14:26:40;;;;;;;10.20;6.92;;;;;;;29.73;30.52;100405.41;2292305;76;49533;-77
2022/08/17 14:29:42;;;;;;;6.37;4.70;;;;;;;29.59;31.33;100403.37;2266621;76;50301;-77
2022/08/17 14:32:47;;;;;;;7.62;4.65;;;;;;;29.55;30.73;100398.18;2292367;76;50670;-77
2022/08/17 14:35:50;;;;;;;6.37;4.60;;;;;;;29.65;30.78;100397.73;2316854;76;22713;-76
2022/08/17 14:38:53;;;;;;;7.00;4.37;;;;;;;29.82;30.41;100402.98;2285776;76;50759;-77
2022/08/17 14:41:57;;;;;;;5.78;4.15;;;;;;;29.91;30.05;100396.50;2262712;78;51480;-77
2022/08/17 14:44:59;;;;;;;9.78;4.75;;;;;;;29.80;30.59;100393.42;2248719;76;51031;-77
2022/08/17 14:48:06;;;;;;;5.10;4.58;;;;;;;29.58;31.59;100399.83;2271830;78;51461;-77
2022/08/17 14:51:07;;;;;;;5.58;4.40;;;;;;;29.45;32.04;100394.84;2272189;77;22353;-77
2022/08/17 14:54:09;;;;;;;5.30;4.37;;;;;;;29.44;31.95;100395.39;2271863;77;51353;-77